หน้าหลัก
METAR-TAF:

METAR-TAF

ท่าอากาศยาน :

Inhambane, โมซัมบิก

ละติจูด: 23-52S, ลองจิจูด: 035-23E, ความสูง: 14 ม.

การสังเกตสภาพอากาศปัจจุบัน

รายงานได้ทำขึ้นเมื่อ 28 นาทีที่แล้ว ณ เวลา 07:00 UTC
ลมสงบ
อุณหภูมิ 25°C
ความชื้น 79%
ความกดอากาศ 1017 hPa
ทัศนวิสัย 10 กม. หรือมากกว่า
มีเมฆน้อยที่ความสูง 2000 ฟุต

METAR: FQIN 200700Z 00000KT 9999 FEW020 25/21 Q1017

เวลา: 09:28 (07:28 UTC)

การพยากรณ์

รายงานได้ทำขึ้นเมื่อ 3 ชั่วโมงและ 28 นาทีที่แล้ว ณ เวลา 04:00 UTC
การพยากรณ์มีผลตั้งแต่วันที่ 20 ณ เวลา 06 UTC จนถึงวันที่ 21 ณ เวลา 06 UTC
ลม 8 นอตจากตะวันตก/ตะวันตกเฉียงใต้
ทัศนวิสัย 10 กม. หรือมากกว่า
มีเมฆกระจายเป็นบางส่วนที่ความสูง 2000 ฟุต
กำลังกลายเป็น
ตั้งแต่วันที่ 20 ณ เวลา 11 UTC จนถึงวันที่ 20 ณ เวลา 13 UTC
ลม 10 นอตจากตะวันออกเฉียงใต้
กำลังกลายเป็น
ตั้งแต่วันที่ 20 ณ เวลา 18 UTC จนถึงวันที่ 20 ณ เวลา 20 UTC
ลม 2 นอตจากทิศทางซึ่งแปรผันได้

TAF: FQIN 200400Z 2006/2106 24008KT 9999 SCT020 TX30/2013Z TN22/2102Z BECMG 2011/2013 13010KT BECMG 2018/2020 VRB02KT

สังเกตการณ์สภาพอากาศและพยากรณ์อากาศของสนามบินมากกว่า 4000 แห่ง (รายงาน METAR และ TAF).

สถานีที่ดูได้จะแสดงไว้ด้วยจุดสีเหลืองและสีแดงบนแผนที่.

เลื่อนเมาส์ไปเหนือจุดเพื่อดูชื่อสถานี.

แล้วคลิกเพื่อดูสังเกตการณ์และการพยากรณ์สภาพอากาศ.

ในการเปลี่ยนแผนที่: คลิกที่ปุ่มสีเขียวที่มีกากบาทสีดำเพื่อซูมเข้า; ที่ปุ่มสีเขียวที่มีขีดเพื่อซูมออก; หรือที่ลูกศรสีเขียวเพื่อไปยังแผนที่ที่อยู่ติดกัน.


METAR-TAF: